Česky Dansk Deutsch English Español Suomi Français Magyar Italiano Nederlands norsk Polski Português svenska Türkçe

 

Het Weer

Lechfeld (Duitsland)

14:20, 23 augustus 2016 (GMT)

NWNNE
WE
SWSSE
Home            
Lechfeld Landsberg Augsburg Fuerstenfeldbruck Oberpfaffenhofen Altenstadt Memmingen Neuburg / Donau Munchen Laupheim Ingolstadt Erding Innsbruck-Flughafen Schwaz Heliport Friedrichshafen Roth Hohenems-Dornbirn Saint Gallen-Altenrhein Ansbach / Katterbach Stuttgart-Echterdingen Hohenfels Konstanz Messstetten

Om een weerknop op uw website of weblog te plaatsen, copieer onderstaande code en plak die in uw pagina. In het eerste vakje staat HTML-code, in het tweede vakje UBB-code.


Add to Google

Details

Wind speed:3 bf, 7 kn, 3.6 m/s, 8.1 miles/h, 13.0 km/h
Wind direction:NNE, 030°
Görüş mesafesi:Değerinden büyük 10000 m, 10 km, 32800 ft, 6.2 miles
Clouds:Az at 4000 ft, 1219 m
Sıcaklık:24°C, 75°F
Gefühlte Temperatur:26°C, 78°F
Dew-point:13°C, 55°F
Atmosferık basınç:1027 hPa, 770.3 mmHg, 30.33 inHg, 1.014 atm
Relativ humidity:50.2 %
METAR:ETSL 231420Z 03007KT 9999 FEW040 24/13 Q1027 BLACKBLU+

Snelkoppelingen

Actuele weersinformatie van de hele wereld. Voeg locaties toe met het plus (+) symbool. Deze snelkoppelingen kunnen worden toegevoegd aan Google.

Lid van de Technetium groep

website free tracking
StatCounter NetStat W3C Validator

18-08-2022 10:08:06
astro.technetium.be money.technetium.be phote.technetium.be tafeltennistafel.technetium.be www.ligfiets.net